createdAt,value
2023-04-04T00:00:04.756Z,2.92
2023-04-04T00:01:04.746Z,2.95
2023-04-04T00:02:04.749Z,2.97
2023-04-04T00:03:04.819Z,2.97
2023-04-04T00:04:04.770Z,2.92
2023-04-04T00:05:04.701Z,2.94
2023-04-04T00:06:04.703Z,2.95
2023-04-04T00:07:04.677Z,2.94
2023-04-04T00:08:04.787Z,2.91
2023-04-04T00:09:04.656Z,2.97
2023-04-04T00:10:04.654Z,2.97
2023-04-04T00:11:04.633Z,2.84
2023-04-04T00:12:04.626Z,2.82
2023-04-04T00:13:04.630Z,2.87
2023-04-04T00:14:04.601Z,2.82
2023-04-04T00:15:04.593Z,2.87
2023-04-04T00:16:04.617Z,2.74
2023-04-04T00:17:04.570Z,2.84
2023-04-04T00:18:04.708Z,2.92
2023-04-04T00:19:04.553Z,2.84
2023-04-04T00:20:04.597Z,2.73
2023-04-04T00:21:04.526Z,2.79
2023-04-04T00:22:04.518Z,2.82
2023-04-04T00:23:04.538Z,2.82
2023-04-04T00:24:04.498Z,2.87
2023-04-04T00:25:04.493Z,2.82
2023-04-04T00:26:04.477Z,2.85
2023-04-04T00:27:04.495Z,2.85
2023-04-04T00:28:04.478Z,2.85
2023-04-04T00:29:04.458Z,2.81
2023-04-04T00:30:04.437Z,2.77
2023-04-04T00:31:04.451Z,2.85
2023-04-04T00:32:04.438Z,2.81
2023-04-04T00:33:04.467Z,2.85
2023-04-04T00:34:04.416Z,2.85
2023-04-04T00:35:04.386Z,2.88
2023-04-04T00:36:04.374Z,2.82
2023-04-04T00:37:04.391Z,2.85
2023-04-04T00:38:04.388Z,2.82
2023-04-04T00:39:04.347Z,2.87
2023-04-04T00:40:04.365Z,2.73
2023-04-04T00:41:04.321Z,2.81
2023-04-04T00:42:04.309Z,2.73
2023-04-04T00:43:04.318Z,2.73
2023-04-04T00:44:04.291Z,2.74
2023-04-04T00:45:04.282Z,2.71
2023-04-04T00:46:04.301Z,2.71
2023-04-04T00:47:04.332Z,2.71
2023-04-04T00:48:04.326Z,2.71
2023-04-04T00:49:04.239Z,2.76
2023-04-04T00:50:04.248Z,2.74
2023-04-04T00:51:04.216Z,2.73
2023-04-04T00:52:04.204Z,2.70
2023-04-04T00:53:04.257Z,2.63
2023-04-04T00:54:04.183Z,2.73
2023-04-04T00:55:04.170Z,2.66
2023-04-04T00:56:04.172Z,2.70
2023-04-04T00:57:04.176Z,2.74
2023-04-04T00:58:04.183Z,2.74
2023-04-04T00:59:04.158Z,2.76
2023-04-04T01:00:04.119Z,2.59
2023-04-04T01:01:04.232Z,2.76
2023-04-04T01:02:04.106Z,2.74
2023-04-04T01:03:04.142Z,2.71
2023-04-04T01:04:04.155Z,2.76
2023-04-04T01:05:04.074Z,2.73
2023-04-04T01:06:04.074Z,2.74
2023-04-04T01:07:04.058Z,2.59
2023-04-04T01:08:04.092Z,2.61
2023-04-04T01:09:04.038Z,2.76
2023-04-04T01:10:04.029Z,2.74
2023-04-04T01:11:04.004Z,2.61
2023-04-04T01:12:03.995Z,2.63
2023-04-04T01:13:03.998Z,2.63
2023-04-04T01:14:03.974Z,2.63
2023-04-04T01:15:03.957Z,2.59
2023-04-04T01:16:03.966Z,2.56
2023-04-04T01:17:03.985Z,2.67
2023-04-04T01:18:04.089Z,2.76
2023-04-04T01:19:03.943Z,2.61
2023-04-04T01:20:03.946Z,2.64
2023-04-04T01:21:03.900Z,2.66
2023-04-04T01:22:03.934Z,2.67
2023-04-04T01:23:03.891Z,2.63
2023-04-04T01:24:03.874Z,2.67
2023-04-04T01:25:03.865Z,2.70
2023-04-04T01:26:03.846Z,2.67
2023-04-04T01:27:03.832Z,2.64
2023-04-04T01:28:03.862Z,2.63
2023-04-04T01:29:03.823Z,2.64
2023-04-04T01:30:03.811Z,2.58
2023-04-04T01:31:03.805Z,2.66
2023-04-04T01:32:03.799Z,2.55
2023-04-04T01:33:03.951Z,2.53
2023-04-04T01:34:03.757Z,2.58
2023-04-04T01:35:03.751Z,2.55
2023-04-04T01:36:03.763Z,2.48
2023-04-04T01:37:03.735Z,2.51
2023-04-04T01:38:03.761Z,2.51
2023-04-04T01:39:03.708Z,2.49
2023-04-04T01:40:03.700Z,2.52
2023-04-04T01:41:03.723Z,2.49
2023-04-04T01:42:03.676Z,2.53
2023-04-04T01:43:03.684Z,2.52
2023-04-04T01:44:03.657Z,2.46
2023-04-04T01:45:03.645Z,2.55
2023-04-04T01:46:03.703Z,2.53
2023-04-04T01:47:03.635Z,2.52
2023-04-04T01:48:03.650Z,2.58
2023-04-04T01:49:03.603Z,2.58
2023-04-04T01:50:03.597Z,2.55
2023-04-04T01:51:03.589Z,2.51
2023-04-04T01:52:03.569Z,2.52
2023-04-04T01:53:03.600Z,2.49
2023-04-04T01:54:03.577Z,2.53
2023-04-04T01:55:03.538Z,2.63
2023-04-04T01:56:03.528Z,2.58
2023-04-04T01:57:03.518Z,2.56
2023-04-04T01:58:03.540Z,2.59
2023-04-04T01:59:03.581Z,2.61
2023-04-04T02:00:03.487Z,2.58
2023-04-04T02:01:03.488Z,2.59
2023-04-04T02:02:03.467Z,2.49
2023-04-04T02:03:03.490Z,2.63
2023-04-04T02:04:03.466Z,2.53
2023-04-04T02:05:03.443Z,2.55
2023-04-04T02:06:03.426Z,2.59
2023-04-04T02:07:03.423Z,2.52
2023-04-04T02:08:03.415Z,2.55
2023-04-04T02:09:03.396Z,2.55
2023-04-04T02:10:03.402Z,2.46
2023-04-04T02:11:03.394Z,2.53
2023-04-04T02:12:03.399Z,2.55
2023-04-04T02:13:03.384Z,2.55
2023-04-04T02:14:03.336Z,2.52
2023-04-04T02:15:03.337Z,2.45
2023-04-04T02:16:03.351Z,2.45
2023-04-04T02:17:03.310Z,2.48
2023-04-04T02:18:03.354Z,2.38
2023-04-04T02:19:03.295Z,2.35
2023-04-04T02:20:03.279Z,2.40
2023-04-04T02:21:03.263Z,2.40
2023-04-04T02:22:03.259Z,2.45
2023-04-04T02:23:03.268Z,2.44
2023-04-04T02:24:03.239Z,2.45
2023-04-04T02:25:03.232Z,2.40
2023-04-04T02:26:03.240Z,2.44
2023-04-04T02:27:03.201Z,2.40
2023-04-04T02:28:03.231Z,2.40
2023-04-04T02:29:03.186Z,2.37
2023-04-04T02:30:03.183Z,2.33
2023-04-04T02:31:03.200Z,2.34
2023-04-04T02:32:03.155Z,2.37
2023-04-04T02:33:03.203Z,2.33
2023-04-04T02:34:03.135Z,2.35
2023-04-04T02:35:03.118Z,2.44
2023-04-04T02:36:03.135Z,2.40
2023-04-04T02:37:03.096Z,2.40
2023-04-04T02:38:03.117Z,2.28
2023-04-04T02:39:03.074Z,2.34
2023-04-04T02:40:03.068Z,2.46
2023-04-04T02:41:03.054Z,2.33
2023-04-04T02:42:03.069Z,2.41
2023-04-04T02:43:03.047Z,2.40
2023-04-04T02:44:03.024Z,2.45
2023-04-04T02:45:03.018Z,2.45
2023-04-04T02:46:14.358Z,2.41
2023-04-04T02:47:04.050Z,2.45
2023-04-04T02:48:03.049Z,2.41
2023-04-04T02:49:02.986Z,2.34
2023-04-04T02:50:02.986Z,2.35
2023-04-04T02:51:02.959Z,2.31
2023-04-04T02:52:02.943Z,2.33
2023-04-04T02:53:02.929Z,2.30
2023-04-04T02:54:02.947Z,2.30
2023-04-04T02:55:02.922Z,2.31
2023-04-04T02:56:02.903Z,2.28
2023-04-04T02:57:02.896Z,2.27
2023-04-04T02:58:02.894Z,2.28
2023-04-04T02:59:02.941Z,2.20
2023-04-04T03:00:02.862Z,2.20
2023-04-04T03:01:02.896Z,2.19
2023-04-04T03:02:02.874Z,2.19
2023-04-04T03:03:02.980Z,2.19
2023-04-04T03:04:02.891Z,2.23
2023-04-04T03:05:02.807Z,2.23
2023-04-04T03:06:02.801Z,2.26
2023-04-04T03:07:02.783Z,2.26
2023-04-04T03:08:02.873Z,2.33
2023-04-04T03:09:02.763Z,2.35
2023-04-04T03:10:02.768Z,2.37
2023-04-04T03:11:02.769Z,2.33
2023-04-04T03:12:02.743Z,2.28
2023-04-04T03:13:02.747Z,2.37
2023-04-04T03:14:02.898Z,2.30
2023-04-04T03:15:02.704Z,2.28
2023-04-04T03:16:02.697Z,2.22
2023-04-04T03:17:02.681Z,2.22
2023-04-04T03:18:02.715Z,2.23
2023-04-04T03:19:02.728Z,2.22
2023-04-04T03:20:02.665Z,2.19
2023-04-04T03:21:02.644Z,2.15
2023-04-04T03:22:02.626Z,2.26
2023-04-04T03:23:02.633Z,2.20
2023-04-04T03:24:02.626Z,2.20
2023-04-04T03:25:02.597Z,2.20
2023-04-04T03:26:02.595Z,2.09
2023-04-04T03:27:02.597Z,2.08
2023-04-04T03:28:02.559Z,2.20
2023-04-04T03:29:02.633Z,2.09
2023-04-04T03:30:02.617Z,2.10
2023-04-04T03:31:02.529Z,2.06
2023-04-04T03:32:02.556Z,2.06
2023-04-04T03:33:02.567Z,2.13
2023-04-04T03:34:02.519Z,2.06
2023-04-04T03:35:02.488Z,2.02
2023-04-04T03:36:02.532Z,2.04
2023-04-04T03:37:02.466Z,2.09
2023-04-04T03:38:02.462Z,2.02
2023-04-04T03:39:02.461Z,2.04
2023-04-04T03:40:02.440Z,2.08
2023-04-04T03:41:02.428Z,2.04
2023-04-04T03:42:02.456Z,2.13
2023-04-04T03:43:02.412Z,2.13
2023-04-04T03:44:02.415Z,2.10
2023-04-04T03:45:02.382Z,2.10
2023-04-04T03:46:02.453Z,2.13
2023-04-04T03:47:02.374Z,2.13
2023-04-04T03:48:02.398Z,2.10
2023-04-04T03:49:02.357Z,2.10
2023-04-04T03:50:02.342Z,2.15
2023-04-04T03:51:02.320Z,2.10
2023-04-04T03:52:02.312Z,2.20
2023-04-04T03:53:02.304Z,2.10
2023-04-04T03:54:02.321Z,2.06
2023-04-04T03:55:02.278Z,2.12
2023-04-04T03:56:02.293Z,2.09
2023-04-04T03:57:02.261Z,2.08
2023-04-04T03:58:02.250Z,2.22
2023-04-04T03:59:02.329Z,2.15
2023-04-04T04:00:02.237Z,2.12
2023-04-04T04:01:02.248Z,2.12
2023-04-04T04:02:02.220Z,2.13
2023-04-04T04:03:02.213Z,2.13
2023-04-04T04:04:02.209Z,2.10
2023-04-04T04:05:02.167Z,2.13
2023-04-04T04:06:02.164Z,2.12
2023-04-04T04:07:02.152Z,2.15
2023-04-04T04:08:02.140Z,2.09
2023-04-04T04:09:02.167Z,2.06
2023-04-04T04:10:02.118Z,2.12
2023-04-04T04:11:02.114Z,2.04
2023-04-04T04:12:02.102Z,2.06
2023-04-04T04:13:02.087Z,2.13
2023-04-04T04:14:02.111Z,2.09
2023-04-04T04:15:02.064Z,2.06
2023-04-04T04:16:02.079Z,2.10
2023-04-04T04:17:02.042Z,2.12
2023-04-04T04:18:02.104Z,2.04
2023-04-04T04:19:02.073Z,2.06
2023-04-04T04:20:02.036Z,2.02
2023-04-04T04:21:01.995Z,2.02
2023-04-04T04:22:01.997Z,1.99
2023-04-04T04:23:01.977Z,2.10
2023-04-04T04:24:02.040Z,2.01
2023-04-04T04:25:01.959Z,2.10
2023-04-04T04:26:01.952Z,2.01
2023-04-04T04:27:01.931Z,2.02
2023-04-04T04:28:01.926Z,2.06
2023-04-04T04:29:01.927Z,1.99
2023-04-04T04:30:01.903Z,2.02
2023-04-04T04:31:01.938Z,2.01
2023-04-04T04:32:01.894Z,2.04
2023-04-04T04:33:01.921Z,2.02
2023-04-04T04:34:01.910Z,2.08
2023-04-04T04:35:01.912Z,2.02
2023-04-04T04:36:02.155Z,2.02
2023-04-04T04:37:01.845Z,2.02
2023-04-04T04:38:01.830Z,2.12
2023-04-04T04:39:01.884Z,2.02
2023-04-04T04:40:02.008Z,2.09
2023-04-04T04:41:01.804Z,2.06
2023-04-04T04:42:01.783Z,2.02
2023-04-04T04:43:01.770Z,2.12
2023-04-04T04:44:01.787Z,2.10
2023-04-04T04:45:01.752Z,2.12
2023-04-04T04:46:01.741Z,2.27
2023-04-04T04:47:01.772Z,2.16
2023-04-04T04:48:01.757Z,2.19
2023-04-04T04:49:01.820Z,2.20
2023-04-04T04:50:01.730Z,2.30
2023-04-04T04:51:01.686Z,2.30
2023-04-04T04:52:01.674Z,2.37
2023-04-04T04:53:01.668Z,2.37
2023-04-04T04:54:01.683Z,2.49
2023-04-04T04:55:01.646Z,2.59
2023-04-04T04:56:01.640Z,2.51
2023-04-04T04:57:01.626Z,2.64
2023-04-04T04:58:01.654Z,2.61
2023-04-04T04:59:01.746Z,2.64
2023-04-04T05:00:01.608Z,2.73
2023-04-04T05:01:01.635Z,2.74
2023-04-04T05:02:01.643Z,2.71
2023-04-04T05:03:01.649Z,2.91
2023-04-04T05:04:01.565Z,2.88
2023-04-04T05:05:01.537Z,3.00
2023-04-04T05:06:01.549Z,3.00
2023-04-04T05:07:01.514Z,3.07
2023-04-04T05:08:01.518Z,3.18
2023-04-04T05:09:01.572Z,3.20
2023-04-04T05:10:01.488Z,3.21
2023-04-04T05:11:03.335Z,3.33
2023-04-04T05:12:01.502Z,3.44
2023-04-04T05:13:01.454Z,3.50
2023-04-04T05:14:01.458Z,3.64
2023-04-04T05:15:01.435Z,3.60
2023-04-04T05:16:01.430Z,3.65
2023-04-04T05:17:01.493Z,3.68
2023-04-04T05:18:01.434Z,3.76
2023-04-04T05:19:01.417Z,3.71
2023-04-04T05:20:01.442Z,3.79
2023-04-04T05:21:01.376Z,3.88
2023-04-04T05:22:01.387Z,3.88
2023-04-04T05:23:01.344Z,4.01
2023-04-04T05:24:01.353Z,4.00
2023-04-04T05:25:01.324Z,4.04
2023-04-04T05:26:01.320Z,4.07
2023-04-04T05:27:01.302Z,4.21
2023-04-04T05:28:01.314Z,4.28
2023-04-04T05:29:01.329Z,4.32
2023-04-04T05:30:01.284Z,4.29
2023-04-04T05:31:01.263Z,4.36
2023-04-04T05:32:01.306Z,4.42
2023-04-04T05:33:01.265Z,4.40
2023-04-04T05:34:01.244Z,4.52
2023-04-04T05:35:01.267Z,4.58
2023-04-04T05:36:01.380Z,4.57
2023-04-04T05:37:01.195Z,4.65
2023-04-04T05:38:01.206Z,4.61
2023-04-04T05:39:01.202Z,4.72
2023-04-04T05:40:01.167Z,4.69
2023-04-04T05:41:01.156Z,4.65
2023-04-04T05:42:01.156Z,4.55
2023-04-04T05:43:01.155Z,4.55
2023-04-04T05:44:01.152Z,4.64
2023-04-04T05:45:01.157Z,4.65
2023-04-04T05:46:01.166Z,4.69
2023-04-04T05:47:01.096Z,4.72
2023-04-04T05:48:01.153Z,4.73
2023-04-04T05:49:01.134Z,4.80
2023-04-04T05:50:01.073Z,4.98
2023-04-04T05:51:01.075Z,5.07
2023-04-04T05:52:01.061Z,5.19
2023-04-04T05:53:01.029Z,5.43
2023-04-04T05:54:01.055Z,5.66
2023-04-04T05:55:01.005Z,5.96
2023-04-04T05:56:00.994Z,6.14
2023-04-04T05:57:00.991Z,6.32
2023-04-04T05:58:00.974Z,6.61
2023-04-04T05:59:01.034Z,6.79
2023-04-04T06:00:01.005Z,6.87
2023-04-04T06:01:00.952Z,6.89
2023-04-04T06:02:00.931Z,6.99
2023-04-04T06:03:01.053Z,7.13
2023-04-04T06:04:00.912Z,7.20
2023-04-04T06:05:00.941Z,7.44
2023-04-04T06:06:00.900Z,7.53
2023-04-04T06:07:00.939Z,7.75
2023-04-04T06:08:00.876Z,7.87
2023-04-04T06:09:00.856Z,7.96
2023-04-04T06:10:00.884Z,8.11
2023-04-04T06:11:00.872Z,8.21
2023-04-04T06:12:00.833Z,8.28
2023-04-04T06:13:00.808Z,8.30
2023-04-04T06:14:00.798Z,8.33
2023-04-04T06:15:00.806Z,8.35
2023-04-04T06:16:00.820Z,8.22
2023-04-04T06:17:00.787Z,8.36
2023-04-04T06:18:00.794Z,8.42
2023-04-04T06:19:00.752Z,8.51
2023-04-04T06:20:00.750Z,8.58
2023-04-04T06:21:00.725Z,8.84
2023-04-04T06:22:00.724Z,8.99
2023-04-04T06:23:00.713Z,8.96
2023-04-04T06:24:00.693Z,9.13
2023-04-04T06:25:00.711Z,9.23
2023-04-04T06:26:00.711Z,9.46
2023-04-04T06:27:00.662Z,9.64
2023-04-04T06:28:00.908Z,9.67
2023-04-04T06:29:00.639Z,9.86
2023-04-04T06:30:00.665Z,9.99
2023-04-04T06:31:00.618Z,10.03
2023-04-04T06:32:00.605Z,10.18
2023-04-04T06:33:00.631Z,10.36
2023-04-04T06:34:00.585Z,10.39
2023-04-04T06:35:00.603Z,10.58
2023-04-04T06:36:00.571Z,10.63
2023-04-04T06:37:00.548Z,10.70
2023-04-04T06:38:00.548Z,10.71
2023-04-04T06:39:00.563Z,10.68
2023-04-04T06:40:00.548Z,10.59
2023-04-04T06:41:00.524Z,10.62
2023-04-04T06:42:00.513Z,10.51
2023-04-04T06:43:00.494Z,10.71
2023-04-04T06:44:00.485Z,10.80
2023-04-04T06:45:00.508Z,10.84
2023-04-04T06:46:00.449Z,10.86
2023-04-04T06:47:00.558Z,10.86
2023-04-04T06:48:00.446Z,10.94
2023-04-04T06:49:00.415Z,11.11
2023-04-04T06:50:00.438Z,11.31
2023-04-04T06:51:00.393Z,11.44
2023-04-04T06:52:00.399Z,11.46
2023-04-04T06:53:00.382Z,11.57
2023-04-04T06:54:00.380Z,11.67
2023-04-04T06:55:00.372Z,11.85
2023-04-04T06:56:00.348Z,12.01
2023-04-04T06:57:00.327Z,12.21
2023-04-04T06:58:00.370Z,12.19
2023-04-04T06:59:00.391Z,12.26
2023-04-04T07:00:00.313Z,12.34
2023-04-04T07:01:00.314Z,12.37
2023-04-04T07:02:00.309Z,12.46
2023-04-04T07:03:00.309Z,12.48
2023-04-04T07:04:00.337Z,12.57
2023-04-04T07:05:00.254Z,12.64
2023-04-04T07:06:00.236Z,12.69
2023-04-04T07:07:00.242Z,12.79
2023-04-04T07:08:07.849Z,12.88
2023-04-04T07:09:00.265Z,13.00
2023-04-04T07:10:00.212Z,12.95
2023-04-04T07:11:00.176Z,12.93
2023-04-04T07:12:00.159Z,13.09
2023-04-04T07:13:00.179Z,13.04
2023-04-04T07:14:00.176Z,13.02
2023-04-04T07:15:00.196Z,13.20
2023-04-04T07:16:00.227Z,12.88
2023-04-04T07:17:02.149Z,12.31
2023-04-04T07:18:01.174Z,12.09
2023-04-04T07:19:00.142Z,12.01
2023-04-04T07:20:00.889Z,12.12
2023-04-04T07:21:00.093Z,12.41
2023-04-04T07:22:00.066Z,12.56
2023-04-04T07:23:00.056Z,12.85
2023-04-04T07:24:00.109Z,13.03
2023-04-04T07:25:00.028Z,13.30
2023-04-04T07:26:00.019Z,13.46
2023-04-04T07:27:00.008Z,13.49
2023-04-04T07:28:11.754Z,13.70
2023-04-04T07:29:01.029Z,13.62
2023-04-04T07:30:00.006Z,13.46
2023-04-04T07:30:59.962Z,13.29
2023-04-04T07:32:00.001Z,13.20
2023-04-04T07:32:59.986Z,13.38
2023-04-04T07:33:59.924Z,13.49
2023-04-04T07:34:59.963Z,13.58
2023-04-04T07:35:59.941Z,13.70
2023-04-04T07:36:59.925Z,13.96
2023-04-04T07:37:59.888Z,14.14
2023-04-04T07:38:59.878Z,14.28
2023-04-04T07:39:59.872Z,14.46
2023-04-04T07:41:01.032Z,14.74
2023-04-04T07:41:59.835Z,14.90
2023-04-04T07:42:59.849Z,14.87
2023-04-04T07:43:59.829Z,14.62
2023-04-04T07:44:59.815Z,14.62
2023-04-04T07:45:59.876Z,14.54
2023-04-04T07:47:09.212Z,14.44
2023-04-04T07:48:00.808Z,14.35
2023-04-04T07:48:59.782Z,14.12
2023-04-04T07:49:59.778Z,14.25
2023-04-04T07:50:59.760Z,14.42
2023-04-04T07:51:59.732Z,14.38
2023-04-04T07:52:59.721Z,14.57
2023-04-04T07:53:59.711Z,14.83
2023-04-04T07:54:59.726Z,15.09
2023-04-04T07:55:59.691Z,15.15
2023-04-04T07:56:59.691Z,15.24
2023-04-04T07:57:59.660Z,15.31
2023-04-04T07:58:59.700Z,15.39
2023-04-04T07:59:59.693Z,15.33
2023-04-04T08:00:59.629Z,15.41
2023-04-04T08:01:59.638Z,15.61
2023-04-04T08:02:59.693Z,15.49
2023-04-04T08:03:59.704Z,15.66
2023-04-04T08:04:59.610Z,15.81
2023-04-04T08:06:07.405Z,15.85
2023-04-04T08:06:59.585Z,15.88
2023-04-04T08:07:59.559Z,15.94
2023-04-04T08:08:59.556Z,16.23
2023-04-04T08:09:59.618Z,16.00
2023-04-04T08:10:59.536Z,16.11
2023-04-04T08:11:59.522Z,15.92
2023-04-04T08:12:59.513Z,15.79
2023-04-04T08:13:59.496Z,16.03
2023-04-04T08:14:59.516Z,15.78
2023-04-04T08:15:59.539Z,15.85
2023-04-04T08:16:59.466Z,15.99
2023-04-04T08:17:59.514Z,16.07
2023-04-04T08:19:00.137Z,16.25
2023-04-04T08:20:06.496Z,16.31
2023-04-04T08:20:59.421Z,16.12
2023-04-04T08:21:59.413Z,15.96
2023-04-04T08:22:59.399Z,15.70
2023-04-04T08:23:59.386Z,15.49
2023-04-04T08:24:59.390Z,15.09
2023-04-04T08:25:59.364Z,15.31
2023-04-04T08:27:05.274Z,15.59
2023-04-04T08:28:00.367Z,15.60
2023-04-04T08:28:59.334Z,15.74
2023-04-04T08:29:59.336Z,15.97
2023-04-04T08:30:59.332Z,16.03
2023-04-04T08:31:59.302Z,15.97
2023-04-04T08:32:59.349Z,15.94
2023-04-04T08:33:59.299Z,16.07
2023-04-04T08:34:59.282Z,16.00
2023-04-04T08:35:59.326Z,16.12
2023-04-04T08:36:59.249Z,16.25
2023-04-04T08:37:59.237Z,16.09
2023-04-04T08:38:59.252Z,15.99
2023-04-04T08:39:59.251Z,16.16
2023-04-04T08:40:59.206Z,16.35
2023-04-04T08:41:59.194Z,16.44
2023-04-04T08:42:59.187Z,16.42
2023-04-04T08:43:59.180Z,16.56
2023-04-04T08:44:59.175Z,16.68
2023-04-04T08:45:59.160Z,16.37
2023-04-04T08:46:59.207Z,16.34
2023-04-04T08:47:59.218Z,16.23
2023-04-04T08:48:59.130Z,16.16
2023-04-04T08:49:59.147Z,16.14
2023-04-04T08:50:59.132Z,16.04
2023-04-04T08:51:59.099Z,15.97
2023-04-04T08:52:59.089Z,15.99
2023-04-04T08:53:59.077Z,15.93
2023-04-04T08:54:59.080Z,15.94
2023-04-04T08:55:59.071Z,16.00
2023-04-04T08:56:59.052Z,16.12
2023-04-04T08:57:59.035Z,16.16
2023-04-04T08:58:59.061Z,16.14
2023-04-04T08:59:59.120Z,16.25
2023-04-04T09:00:59.008Z,16.09
2023-04-04T09:02:01.158Z,16.12
2023-04-04T09:02:59.096Z,15.94
2023-04-04T09:03:58.978Z,16.23
2023-04-04T09:05:06.410Z,16.27
2023-04-04T09:05:59.984Z,16.25
2023-04-04T09:06:58.949Z,16.56
2023-04-04T09:07:59.162Z,16.45
2023-04-04T09:08:58.952Z,16.67
2023-04-04T09:09:58.935Z,16.99
2023-04-04T09:10:58.904Z,16.67
2023-04-04T09:11:58.906Z,16.03
2023-04-04T09:13:08.709Z,15.78
2023-04-04T09:13:59.872Z,15.72
2023-04-04T09:14:58.871Z,15.97
2023-04-04T09:15:58.851Z,16.25
2023-04-04T09:16:58.864Z,16.35
2023-04-04T09:17:58.883Z,16.49
2023-04-04T09:18:58.834Z,16.70
2023-04-04T09:19:58.849Z,16.93
2023-04-04T09:20:58.821Z,17.15
2023-04-04T09:21:58.819Z,17.08
2023-04-04T09:22:58.781Z,16.90
2023-04-04T09:23:58.766Z,16.80
2023-04-04T09:24:58.788Z,17.10
2023-04-04T09:26:03.707Z,17.33
2023-04-04T09:26:59.737Z,17.26
2023-04-04T09:27:58.723Z,17.14
2023-04-04T09:28:58.761Z,17.18
2023-04-04T09:29:58.732Z,17.18
2023-04-04T09:30:58.700Z,17.04
2023-04-04T09:31:58.755Z,16.26
2023-04-04T09:32:58.718Z,15.85
2023-04-04T09:33:58.666Z,15.63
2023-04-04T09:34:58.649Z,15.59
2023-04-04T09:35:58.731Z,14.94
2023-04-04T09:36:58.635Z,14.53
2023-04-04T09:37:58.637Z,13.95
2023-04-04T09:38:58.611Z,13.49
2023-04-04T09:39:58.603Z,13.20
2023-04-04T09:40:58.635Z,12.84
2023-04-04T09:41:58.579Z,12.59
2023-04-04T09:42:58.572Z,12.39
2023-04-04T09:43:58.559Z,12.08
2023-04-04T09:44:58.590Z,12.19
2023-04-04T09:45:58.565Z,12.13
2023-04-04T09:46:58.574Z,11.97
2023-04-04T09:47:58.594Z,11.80
2023-04-04T09:48:58.499Z,11.53
2023-04-04T09:49:58.493Z,11.49
2023-04-04T09:50:58.497Z,11.27
2023-04-04T09:51:58.472Z,11.16
2023-04-04T09:52:58.459Z,11.36
2023-04-04T09:53:58.469Z,11.89
2023-04-04T09:54:58.443Z,12.44
2023-04-04T09:55:58.447Z,12.84
2023-04-04T09:56:58.435Z,13.47
2023-04-04T09:57:58.402Z,13.70
2023-04-04T09:59:04.025Z,13.59
2023-04-04T09:59:59.476Z,13.49
2023-04-04T10:00:58.454Z,13.03
2023-04-04T10:01:58.446Z,12.59
2023-04-04T10:02:58.429Z,12.41
2023-04-04T10:03:58.407Z,12.09
2023-04-04T10:05:06.175Z,11.75
2023-04-04T10:05:59.326Z,11.71
2023-04-04T10:06:58.312Z,11.70
2023-04-04T10:07:58.295Z,11.61
2023-04-04T10:08:58.450Z,11.31
2023-04-04T10:09:58.305Z,11.20
2023-04-04T10:11:09.789Z,11.09
2023-04-04T10:11:59.249Z,11.07
2023-04-04T10:12:58.242Z,11.02
2023-04-04T10:13:58.237Z,10.92
2023-04-04T10:14:58.251Z,10.98
2023-04-04T10:15:58.238Z,10.78
2023-04-04T10:16:58.199Z,10.71
2023-04-04T10:17:58.207Z,10.73
2023-04-04T10:18:58.180Z,10.68
2023-04-04T10:19:58.162Z,10.55
2023-04-04T10:21:08.189Z,10.47
2023-04-04T10:21:59.142Z,10.46
2023-04-04T10:22:58.135Z,10.37
2023-04-04T10:23:58.124Z,10.91
2023-04-04T10:24:58.120Z,10.89
2023-04-04T10:25:58.163Z,10.86
2023-04-04T10:26:58.088Z,10.74
2023-04-04T10:27:58.080Z,10.81
2023-04-04T10:28:58.076Z,10.73
2023-04-04T10:29:58.056Z,10.91
2023-04-04T10:31:06.380Z,11.57
2023-04-04T10:31:59.528Z,11.93
2023-04-04T10:32:58.047Z,12.63
2023-04-04T10:33:58.014Z,13.07
2023-04-04T10:34:58.001Z,13.20
2023-04-04T10:35:58.024Z,13.18
2023-04-04T10:36:57.984Z,12.93
2023-04-04T10:37:57.971Z,12.75
2023-04-04T10:38:57.965Z,12.66
2023-04-04T10:39:57.959Z,12.49
2023-04-04T10:40:57.956Z,12.31
2023-04-04T10:41:57.966Z,12.21
2023-04-04T10:42:57.925Z,11.82
2023-04-04T10:43:57.906Z,11.75
2023-04-04T10:45:03.629Z,11.50
2023-04-04T10:45:58.903Z,11.47
2023-04-04T10:46:57.915Z,11.35
2023-04-04T10:47:57.909Z,11.34
2023-04-04T10:48:57.862Z,11.10
2023-04-04T10:49:57.842Z,10.95
2023-04-04T10:50:57.848Z,10.78
2023-04-04T10:51:57.818Z,10.83
2023-04-04T10:52:57.818Z,10.80
2023-04-04T10:53:57.803Z,10.83
2023-04-04T10:54:57.800Z,10.76
2023-04-04T10:55:57.798Z,10.73
2023-04-04T10:56:57.831Z,10.60
2023-04-04T10:57:57.776Z,10.65
2023-04-04T10:58:58.243Z,10.63
2023-04-04T10:59:57.749Z,10.52
2023-04-04T11:00:57.896Z,10.56
2023-04-04T11:01:57.722Z,10.36
2023-04-04T11:02:57.748Z,10.42
2023-04-04T11:03:57.742Z,10.40
2023-04-04T11:04:57.686Z,10.42
2023-04-04T11:05:57.698Z,10.40
2023-04-04T11:06:57.700Z,10.44
2023-04-04T11:08:07.464Z,10.55
2023-04-04T11:08:58.635Z,10.56
2023-04-04T11:09:57.628Z,10.44
2023-04-04T11:10:57.651Z,10.37
2023-04-04T11:11:57.615Z,10.26
2023-04-04T11:13:11.428Z,10.36
2023-04-04T11:13:58.603Z,10.24
2023-04-04T11:14:57.571Z,10.17
2023-04-04T11:15:57.665Z,10.19
2023-04-04T11:16:57.631Z,10.10
2023-04-04T11:17:57.653Z,10.12
2023-04-04T11:18:57.602Z,10.17
2023-04-04T11:19:57.545Z,10.17
2023-04-04T11:20:57.694Z,10.22
2023-04-04T11:21:57.500Z,10.17
2023-04-04T11:22:57.491Z,10.21
2023-04-04T11:23:57.473Z,10.19
2023-04-04T11:24:57.511Z,10.21
2023-04-04T11:25:57.470Z,10.21
2023-04-04T11:26:57.445Z,10.07
2023-04-04T11:27:57.502Z,10.07
2023-04-04T11:28:57.432Z,9.99
2023-04-04T11:29:57.431Z,10.07
2023-04-04T11:30:57.437Z,9.97
2023-04-04T11:31:57.408Z,9.97
2023-04-04T11:33:07.086Z,9.83
2023-04-04T11:33:58.372Z,9.82
2023-04-04T11:34:57.360Z,9.93
2023-04-04T11:35:57.403Z,9.83
2023-04-04T11:36:57.334Z,9.82
2023-04-04T11:37:57.324Z,9.91
2023-04-04T11:38:57.312Z,9.79
2023-04-04T11:39:57.353Z,9.97
2023-04-04T11:40:57.309Z,9.94
2023-04-04T11:41:57.287Z,9.96
2023-04-04T11:42:57.341Z,10.06
2023-04-04T11:43:57.259Z,10.07
2023-04-04T11:44:57.251Z,10.10
2023-04-04T11:45:57.286Z,10.14
2023-04-04T11:46:57.224Z,10.17
2023-04-04T11:47:57.269Z,10.18
2023-04-04T11:48:57.205Z,10.21
2023-04-04T11:49:57.212Z,10.18
2023-04-04T11:50:57.217Z,10.21
2023-04-04T11:51:57.170Z,10.12
2023-04-04T11:52:57.159Z,10.22
2023-04-04T11:53:57.148Z,10.15
2023-04-04T11:54:57.139Z,10.10
2023-04-04T11:55:57.140Z,9.96
2023-04-04T11:56:57.120Z,9.88
2023-04-04T11:57:57.108Z,9.91
2023-04-04T11:59:05.283Z,10.00
2023-04-04T11:59:58.141Z,10.09
2023-04-04T12:00:57.083Z,10.17
2023-04-04T12:01:57.118Z,10.14
2023-04-04T12:02:57.089Z,10.18
2023-04-04T12:03:57.040Z,10.17
2023-04-04T12:04:57.083Z,10.21
2023-04-04T12:05:57.073Z,10.18
2023-04-04T12:06:57.004Z,10.24
2023-04-04T12:07:57.000Z,10.18
2023-04-04T12:08:56.985Z,10.17
2023-04-04T12:09:57.463Z,10.15
2023-04-04T12:10:57.004Z,10.21
2023-04-04T12:11:56.975Z,10.09
2023-04-04T12:12:56.939Z,10.17
2023-04-04T12:13:56.938Z,10.12
2023-04-04T12:15:10.498Z,10.12
2023-04-04T12:15:57.953Z,10.15
2023-04-04T12:16:56.906Z,10.14
2023-04-04T12:17:56.954Z,10.09
2023-04-04T12:18:56.881Z,10.17
2023-04-04T12:19:56.896Z,10.19
2023-04-04T12:20:56.911Z,10.17
2023-04-04T12:21:56.847Z,10.10
2023-04-04T12:22:56.837Z,9.99
2023-04-04T12:23:56.828Z,10.06
2023-04-04T12:24:56.812Z,10.10
2023-04-04T12:25:56.824Z,10.15
2023-04-04T12:26:56.812Z,10.07
2023-04-04T12:27:56.805Z,10.09
2023-04-04T12:28:56.790Z,10.12
2023-04-04T12:29:56.762Z,10.17
2023-04-04T12:30:56.760Z,10.15
2023-04-04T12:31:56.774Z,10.21
2023-04-04T12:32:56.799Z,10.21
2023-04-04T12:33:56.840Z,10.19
2023-04-04T12:34:56.701Z,10.26
2023-04-04T12:35:56.735Z,10.22
2023-04-04T12:36:56.680Z,10.33
2023-04-04T12:37:56.672Z,10.30
2023-04-04T12:38:56.680Z,10.42
2023-04-04T12:39:56.812Z,10.40
2023-04-04T12:40:56.659Z,10.37
2023-04-04T12:41:56.624Z,10.39
2023-04-04T12:42:56.613Z,10.40
2023-04-04T12:43:56.609Z,10.53
2023-04-04T12:44:56.592Z,10.46
2023-04-04T12:45:57.555Z,10.47
2023-04-04T12:46:56.595Z,10.42
2023-04-04T12:47:56.604Z,10.42
2023-04-04T12:48:56.548Z,10.39
2023-04-04T12:49:56.570Z,10.43
2023-04-04T12:50:56.583Z,10.40
2023-04-04T12:51:56.517Z,10.43
2023-04-04T12:53:13.304Z,10.40
2023-04-04T12:53:57.536Z,10.36
2023-04-04T12:55:07.341Z,10.39
2023-04-04T12:55:57.517Z,10.33
2023-04-04T12:56:56.459Z,10.39
2023-04-04T12:57:56.452Z,10.40
2023-04-04T12:58:56.566Z,10.40
2023-04-04T12:59:56.430Z,10.34
2023-04-04T13:00:56.491Z,10.39
2023-04-04T13:01:56.413Z,10.40
2023-04-04T13:02:56.456Z,10.32
2023-04-04T13:03:56.395Z,10.37
2023-04-04T13:04:56.398Z,10.26